Hjaltland — VSTY8 — position and weather

sailwx.info

Track history (hours):
 
Tides and Currents Weather Stations Pressure Air Temp Water Temp Dewpoint Dewpoint Depression Visibility Wind Speed Wind Dir Waves Ship Positions

Hjaltland

Operator: NorthLink Orkey & Shetland Ferries Ltd

Last reported at 2017-Jul-27 00:06 UTC. Time now 2017-Jul-27 02:36 UTC.
Position N 58°53' W 002°35'.

Type: Passenger vessel. MMSI: 235450000.

Date/timePositionNaut miles runAvg speedWind from/ knotsBaromVisibWave heightAir tempDewpointWater temp
2017-Jul-27 00:06N 58°53' W 002°35'524.3
2017-Jul-26 23:53N 58°59' W 002°38'822.3
2017-Jul-26 23:30N 59°01' W 002°54'2 1.5
2017-Jul-26 21:55N 58°60' W 002°58'4 9.0
2017-Jul-26 21:29N 59°01' W 002°51'919.1
2017-Jul-26 21:00N 59°01' W 002°33'5 0.2
2017-Jul-26 00:56N 59°04' W 002°27'714.0
2017-Jul-26 00:27N 59°00' W 002°38'816.9
2017-Jul-26 00:00N 59°01' W 002°53'3 1.6
2017-Jul-25 22:03N 58°60' W 002°58'0 1.2
2017-Jul-25 22:00N 58°60' W 002°58'715.0
2017-Jul-25 21:30N 58°60' W 002°44'9123.1
2017-Jul-25 17:34N 57°36' W 001°39'123.5
2017-Jul-25 17:30N 57°34' W 001°39'1921.9
2017-Jul-25 16:40N 57°17' W 001°52'322.7
2017-Jul-25 16:30N 57°14' W 001°55'815.0
2017-Jul-25 16:01N 57°09' W 002°05'0 0.8
2017-Jul-25 15:29N 57°09' W 002°05'0 0.0
2017-Jul-25 14:59N 57°09' W 002°05'0 0.0
2017-Jul-25 13:59N 57°09' W 002°05'0 0.0
2017-Jul-25 13:29N 57°09' W 002°05'0 0.0
2017-Jul-25 12:59N 57°09' W 002°05'0 0.0
2017-Jul-25 12:29N 57°09' W 002°05'0 0.0
2017-Jul-25 11:59N 57°09' W 002°05'0 0.0
2017-Jul-25 11:29N 57°09' W 002°05'0 0.0
2017-Jul-25 10:59N 57°09' W 002°05'0 0.0
2017-Jul-25 10:29N 57°09' W 002°05'0 0.0
2017-Jul-25 09:59N 57°09' W 002°05'0 0.0
2017-Jul-25 09:28N 57°09' W 002°05'0 0.0
2017-Jul-25 08:58N 57°09' W 002°05'0 0.0
2017-Jul-25 08:28N 57°09' W 002°05'0 0.0
2017-Jul-25 07:58N 57°09' W 002°05'0 0.0
2017-Jul-25 07:28N 57°09' W 002°05'0 0.0
2017-Jul-25 06:58N 57°09' W 002°05'0 0.0
2017-Jul-25 06:28N 57°09' W 002°05'0 0.0
2017-Jul-25 05:58N 57°09' W 002°05'1 1.2
2017-Jul-25 05:30N 57°09' W 002°04'611.6
2017-Jul-25 05:00N 57°13' W 001°57'915.5
2017-Jul-25 04:26N 57°20' W 001°47'1114.4
2017-Jul-25 03:39N 57°30' W 001°38'9522.3
2017-Jul-24 23:24N 58°59' W 002°39'922.7
2017-Jul-24 23:00N 59°01' W 002°56'2 2.0
2017-Jul-24 22:03N 58°60' W 002°58'0 0.9
2017-Jul-24 21:59N 58°60' W 002°58'5 9.8
2017-Jul-24 21:30N 59°01' W 002°49'816.0
2017-Jul-24 21:01N 59°00' W 002°34'6 0.3
2017-Jul-24 00:31N 59°05' W 002°26'112.4
2017-Jul-24 00:27N 59°04' W 002°27'511.7
2017-Jul-24 00:00N 59°00' W 002°34'613.0
2017-Jul-23 23:30N 59°01' W 002°47'611.7
2017-Jul-23 23:00N 58°60' W 002°58'0 0.1
2017-Jul-23 21:54N 58°60' W 002°58'410.5
2017-Jul-23 21:30N 59°01' W 002°50'1019.1
2017-Jul-23 21:00N 58°54' W 002°36'1622.5
2017-Jul-23 20:17N 58°40' W 002°25'6923.2
2017-Jul-23 17:20N 57°35' W 001°41'824.1
2017-Jul-23 17:00N 57°27' W 001°41'1222.8
2017-Jul-23 16:30N 57°17' W 001°52'1021.4
2017-Jul-23 16:00N 57°09' W 002°04'1 1.7
2017-Jul-23 15:30N 57°09' W 002°05'0 0.0
2017-Jul-23 15:00N 57°09' W 002°05'0 0.0
2017-Jul-23 14:30N 57°09' W 002°05'0 0.0
2017-Jul-23 14:00N 57°09' W 002°05'0 0.0
2017-Jul-23 13:30N 57°09' W 002°05'0 0.0
2017-Jul-23 13:00N 57°09' W 002°05'0 0.0
2017-Jul-23 12:30N 57°09' W 002°05'0 0.0
2017-Jul-23 12:00N 57°09' W 002°05'0 0.0
2017-Jul-23 11:30N 57°09' W 002°05'0 0.0
2017-Jul-23 11:00N 57°09' W 002°05'0 0.0
2017-Jul-23 10:30N 57°09' W 002°05'0 0.0
2017-Jul-23 10:00N 57°09' W 002°05'0 0.0
2017-Jul-23 09:30N 57°09' W 002°05'0 0.0
2017-Jul-23 09:00N 57°09' W 002°05'0 0.0
2017-Jul-23 08:30N 57°09' W 002°05'0 0.0
2017-Jul-23 08:00N 57°09' W 002°05'0 0.0
2017-Jul-23 07:30N 57°09' W 002°05'0 0.0
2017-Jul-23 07:00N 57°09' W 002°05'0 0.0
2017-Jul-23 06:30N 57°09' W 002°05'0 0.0
2017-Jul-23 06:00N 57°09' W 002°05'1 1.1
2017-Jul-23 05:31N 57°08' W 002°04'612.1
2017-Jul-23 05:01N 57°13' W 001°57'1713.9
2017-Jul-23 03:46N 57°27' W 001°39'712.5
2017-Jul-23 03:14N 57°34' W 001°39'3 0.1
2017-Jul-21 20:05N 57°32' W 001°35'113.9
2017-Jul-21 20:00N 57°31' W 001°35'1613.6
2017-Jul-21 18:51N 57°18' W 001°51'514.3
2017-Jul-21 18:30N 57°14' W 001°56'713.7
2017-Jul-21 18:00N 57°09' W 002°04'1 1.7
2017-Jul-21 17:30N 57°09' W 002°05'0 0.0
2017-Jul-21 17:00N 57°09' W 002°05'0 0.0
2017-Jul-21 16:30N 57°09' W 002°05'0 0.0
2017-Jul-21 16:00N 57°09' W 002°05'0 0.0
2017-Jul-21 15:30N 57°09' W 002°05'0 0.0
2017-Jul-21 15:00N 57°09' W 002°05'0 0.0
2017-Jul-21 14:30N 57°09' W 002°05'0 0.0
2017-Jul-21 14:00N 57°09' W 002°05'0 0.0
2017-Jul-21 13:30N 57°09' W 002°05'0 0.0
2017-Jul-21 13:00N 57°09' W 002°05'0 0.0
2017-Jul-21 12:30N 57°09' W 002°05'0 0.0
2017-Jul-21 11:58N 57°09' W 002°05'0 0.0
2017-Jul-21 11:28N 57°09' W 002°05'0 0.0
2017-Jul-21 10:58N 57°09' W 002°05'0 0.0
2017-Jul-21 10:28N 57°09' W 002°05'0 0.0
2017-Jul-21 10:00N 57°09' W 002°05'0 0.0
2017-Jul-21 09:30N 57°09' W 002°05'0 0.0
2017-Jul-21 09:00N 57°09' W 002°05'0 0.0
2017-Jul-21 08:30N 57°09' W 002°05'0 0.0
2017-Jul-21 08:00N 57°09' W 002°05'0 0.0
2017-Jul-21 07:30N 57°09' W 002°05'0 0.0
2017-Jul-21 07:00N 57°09' W 002°05'0 0.0
2017-Jul-21 06:30N 57°09' W 002°05'0 0.0
2017-Jul-21 06:00N 57°09' W 002°05'1 1.2
2017-Jul-21 05:30N 57°08' W 002°04'611.9
2017-Jul-21 05:01N 57°12' W 001°56'1815.0
2017-Jul-21 03:48N 57°28' W 001°40'311.0
2017-Jul-21 03:29N 57°32' W 001°40'3 0.1
2017-Jul-19 20:29N 57°32' W 001°35'511.3
2017-Jul-19 20:00N 57°27' W 001°38'1111.1
2017-Jul-19 18:59N 57°18' W 001°50'612.4
2017-Jul-19 18:30N 57°13' W 001°56'612.6
2017-Jul-19 18:00N 57°09' W 002°04'1 1.4
2017-Jul-19 17:29N 57°09' W 002°05'0 0.0
2017-Jul-19 16:59N 57°09' W 002°05'0 0.0
2017-Jul-19 16:29N 57°09' W 002°05'0 0.0
2017-Jul-19 15:59N 57°09' W 002°05'0 0.0
2017-Jul-19 15:29N 57°09' W 002°05'0 0.0
2017-Jul-19 14:59N 57°09' W 002°05'0 0.0
2017-Jul-19 14:29N 57°09' W 002°05'0 0.0
2017-Jul-19 13:59N 57°09' W 002°05'0 0.0
2017-Jul-19 13:29N 57°09' W 002°05'0 0.0
2017-Jul-19 12:59N 57°09' W 002°05'0 0.0
2017-Jul-19 12:29N 57°09' W 002°05'0 0.0
2017-Jul-19 11:59N 57°09' W 002°05'0 0.0
2017-Jul-19 11:29N 57°09' W 002°05'0 0.0
2017-Jul-19 10:59N 57°09' W 002°05'0 0.0
2017-Jul-19 10:29N 57°09' W 002°05'0 0.0
2017-Jul-19 09:59N 57°09' W 002°05'0 0.0
2017-Jul-19 09:29N 57°09' W 002°05'0 0.0
2017-Jul-19 08:59N 57°09' W 002°05'0 0.0
2017-Jul-19 08:29N 57°09' W 002°05'0 0.0
2017-Jul-19 07:59N 57°09' W 002°05'0 0.0
2017-Jul-19 07:29N 57°09' W 002°05'0 0.0
2017-Jul-19 06:59N 57°09' W 002°05'0 0.0
2017-Jul-19 06:29N 57°09' W 002°05'0 0.0
2017-Jul-19 05:59N 57°09' W 002°05'0 0.9
2017-Jul-19 05:31N 57°09' W 002°05'511.0
2017-Jul-19 05:01N 57°13' W 001°58'812.2
2017-Jul-19 04:23N 57°19' W 001°50'1012.4
2017-Jul-19 03:33N 57°27' W 001°39'312.1
2017-Jul-19 03:17N 57°31' W 001°37'414.4
2017-Jul-19 02:59N 57°35' W 001°38'1217.1
2017-Jul-19 02:19N 57°46' W 001°40'917.4
2017-Jul-19 01:47N 57°55' W 001°41'517.4
2017-Jul-19 01:30N 58°00' W 001°41'8 0.3
2017-Jul-17 21:07N 57°53' W 001°34'818.6
2017-Jul-17 20:43N 57°46' W 001°35'418.3
2017-Jul-17 20:30N 57°42' W 001°35'917.3
2017-Jul-17 19:58N 57°33' W 001°35'816.7
2017-Jul-17 19:30N 57°25' W 001°40'917.4
2017-Jul-17 19:00N 57°18' W 001°49'917.6
2017-Jul-17 18:30N 57°11' W 001°58'5 9.1
2017-Jul-17 18:00N 57°09' W 002°05'0 0.2
2017-Jul-17 17:30N 57°09' W 002°05'0 0.0
2017-Jul-17 17:00N 57°09' W 002°05'0 0.0
2017-Jul-17 16:30N 57°09' W 002°05'0 0.0
2017-Jul-17 16:00N 57°09' W 002°05'0 0.0
2017-Jul-17 15:30N 57°09' W 002°05'0 0.0
2017-Jul-17 15:00N 57°09' W 002°05'0 0.0
2017-Jul-17 14:30N 57°09' W 002°05'0 0.0
2017-Jul-17 14:00N 57°09' W 002°05'0 0.0
2017-Jul-17 13:24N 57°09' W 002°05'0 0.0
2017-Jul-17 12:58N 57°09' W 002°05'0 0.0
2017-Jul-17 12:28N 57°09' W 002°05'0 0.0
2017-Jul-17 12:00N 57°09' W 002°05'0 0.0
2017-Jul-17 11:30N 57°09' W 002°05'0 0.0
2017-Jul-17 11:00N 57°09' W 002°05'0 0.0
2017-Jul-17 10:30N 57°09' W 002°05'0 0.0
2017-Jul-17 10:00N 57°09' W 002°05'0 0.0
2017-Jul-17 09:30N 57°09' W 002°05'0 0.0
2017-Jul-17 08:59N 57°09' W 002°05'0 0.0
2017-Jul-17 08:29N 57°09' W 002°05'0 0.0
2017-Jul-17 07:59N 57°09' W 002°05'0 0.0
2017-Jul-17 07:29N 57°09' W 002°05'0 0.0
2017-Jul-17 06:59N 57°09' W 002°05'0 0.0
2017-Jul-17 06:29N 57°09' W 002°05'0 0.0
2017-Jul-17 05:59N 57°09' W 002°05'1 1.2
2017-Jul-17 05:31N 57°09' W 002°04'713.5
2017-Jul-17 05:00N 57°13' W 001°56'2013.8
2017-Jul-17 03:32N 57°31' W 001°37'113.5
2017-Jul-17 03:28N 57°32' W 001°37'1813.9
2017-Jul-17 02:12N 57°50' W 001°37'  
Track history (hours):
 
Tides and Currents Weather Stations Pressure Air Temp Water Temp Dewpoint Dewpoint Depression Visibility Wind Speed Wind Dir Waves Ship Positions

Hjaltland

Operator: NorthLink Orkey & Shetland Ferries Ltd

Last reported at 2017-Jul-27 00:06 UTC. Time now 2017-Jul-27 02:36 UTC.
Position N 58°53' W 002°35'.

Type: Passenger vessel. MMSI: 235450000.

Date/timePositionNaut miles runAvg speedWind from/ knotsBaromVisibWave heightAir tempDewpointWater temp
2017-Jul-27 00:06N 58°53' W 002°35'524.3
2017-Jul-26 23:53N 58°59' W 002°38'822.3
2017-Jul-26 23:30N 59°01' W 002°54'2 1.5
2017-Jul-26 21:55N 58°60' W 002°58'4 9.0
2017-Jul-26 21:29N 59°01' W 002°51'919.1
2017-Jul-26 21:00N 59°01' W 002°33'5 0.2
2017-Jul-26 00:56N 59°04' W 002°27'714.0
2017-Jul-26 00:27N 59°00' W 002°38'816.9
2017-Jul-26 00:00N 59°01' W 002°53'3 1.6
2017-Jul-25 22:03N 58°60' W 002°58'0 1.2
2017-Jul-25 22:00N 58°60' W 002°58'715.0
2017-Jul-25 21:30N 58°60' W 002°44'9123.1
2017-Jul-25 17:34N 57°36' W 001°39'123.5
2017-Jul-25 17:30N 57°34' W 001°39'1921.9
2017-Jul-25 16:40N 57°17' W 001°52'322.7
2017-Jul-25 16:30N 57°14' W 001°55'815.0
2017-Jul-25 16:01N 57°09' W 002°05'0 0.8
2017-Jul-25 15:29N 57°09' W 002°05'0 0.0
2017-Jul-25 14:59N 57°09' W 002°05'0 0.0
2017-Jul-25 13:59N 57°09' W 002°05'0 0.0
2017-Jul-25 13:29N 57°09' W 002°05'0 0.0
2017-Jul-25 12:59N 57°09' W 002°05'0 0.0
2017-Jul-25 12:29N 57°09' W 002°05'0 0.0
2017-Jul-25 11:59N 57°09' W 002°05'0 0.0
2017-Jul-25 11:29N 57°09' W 002°05'0 0.0
2017-Jul-25 10:59N 57°09' W 002°05'0 0.0
2017-Jul-25 10:29N 57°09' W 002°05'0 0.0
2017-Jul-25 09:59N 57°09' W 002°05'0 0.0
2017-Jul-25 09:28N 57°09' W 002°05'0 0.0
2017-Jul-25 08:58N 57°09' W 002°05'0 0.0
2017-Jul-25 08:28N 57°09' W 002°05'0 0.0
2017-Jul-25 07:58N 57°09' W 002°05'0 0.0
2017-Jul-25 07:28N 57°09' W 002°05'0 0.0
2017-Jul-25 06:58N 57°09' W 002°05'0 0.0
2017-Jul-25 06:28N 57°09' W 002°05'0 0.0
2017-Jul-25 05:58N 57°09' W 002°05'1 1.2
2017-Jul-25 05:30N 57°09' W 002°04'611.6
2017-Jul-25 05:00N 57°13' W 001°57'915.5
2017-Jul-25 04:26N 57°20' W 001°47'1114.4
2017-Jul-25 03:39N 57°30' W 001°38'9522.3
2017-Jul-24 23:24N 58°59' W 002°39'922.7
2017-Jul-24 23:00N 59°01' W 002°56'2 2.0
2017-Jul-24 22:03N 58°60' W 002°58'0 0.9
2017-Jul-24 21:59N 58°60' W 002°58'5 9.8
2017-Jul-24 21:30N 59°01' W 002°49'816.0
2017-Jul-24 21:01N 59°00' W 002°34'6 0.3
2017-Jul-24 00:31N 59°05' W 002°26'112.4
2017-Jul-24 00:27N 59°04' W 002°27'511.7
2017-Jul-24 00:00N 59°00' W 002°34'613.0
2017-Jul-23 23:30N 59°01' W 002°47'611.7
2017-Jul-23 23:00N 58°60' W 002°58'0 0.1
2017-Jul-23 21:54N 58°60' W 002°58'410.5
2017-Jul-23 21:30N 59°01' W 002°50'1019.1
2017-Jul-23 21:00N 58°54' W 002°36'1622.5
2017-Jul-23 20:17N 58°40' W 002°25'6923.2
2017-Jul-23 17:20N 57°35' W 001°41'824.1
2017-Jul-23 17:00N 57°27' W 001°41'1222.8
2017-Jul-23 16:30N 57°17' W 001°52'1021.4
2017-Jul-23 16:00N 57°09' W 002°04'1 1.7
2017-Jul-23 15:30N 57°09' W 002°05'0 0.0
2017-Jul-23 15:00N 57°09' W 002°05'0 0.0
2017-Jul-23 14:30N 57°09' W 002°05'0 0.0
2017-Jul-23 14:00N 57°09' W 002°05'0 0.0
2017-Jul-23 13:30N 57°09' W 002°05'0 0.0
2017-Jul-23 13:00N 57°09' W 002°05'0 0.0
2017-Jul-23 12:30N 57°09' W 002°05'0 0.0
2017-Jul-23 12:00N 57°09' W 002°05'0 0.0
2017-Jul-23 11:30N 57°09' W 002°05'0 0.0
2017-Jul-23 11:00N 57°09' W 002°05'0 0.0
2017-Jul-23 10:30N 57°09' W 002°05'0 0.0
2017-Jul-23 10:00N 57°09' W 002°05'0 0.0
2017-Jul-23 09:30N 57°09' W 002°05'0 0.0
2017-Jul-23 09:00N 57°09' W 002°05'0 0.0
2017-Jul-23 08:30N 57°09' W 002°05'0 0.0
2017-Jul-23 08:00N 57°09' W 002°05'0 0.0
2017-Jul-23 07:30N 57°09' W 002°05'0 0.0
2017-Jul-23 07:00N 57°09' W 002°05'0 0.0
2017-Jul-23 06:30N 57°09' W 002°05'0 0.0
2017-Jul-23 06:00N 57°09' W 002°05'1 1.1
2017-Jul-23 05:31N 57°08' W 002°04'612.1
2017-Jul-23 05:01N 57°13' W 001°57'1713.9
2017-Jul-23 03:46N 57°27' W 001°39'712.5
2017-Jul-23 03:14N 57°34' W 001°39'3 0.1
2017-Jul-21 20:05N 57°32' W 001°35'113.9
2017-Jul-21 20:00N 57°31' W 001°35'1613.6
2017-Jul-21 18:51N 57°18' W 001°51'514.3
2017-Jul-21 18:30N 57°14' W 001°56'713.7
2017-Jul-21 18:00N 57°09' W 002°04'1 1.7
2017-Jul-21 17:30N 57°09' W 002°05'0 0.0
2017-Jul-21 17:00N 57°09' W 002°05'0 0.0
2017-Jul-21 16:30N 57°09' W 002°05'0 0.0
2017-Jul-21 16:00N 57°09' W 002°05'0 0.0
2017-Jul-21 15:30N 57°09' W 002°05'0 0.0
2017-Jul-21 15:00N 57°09' W 002°05'0 0.0
2017-Jul-21 14:30N 57°09' W 002°05'0 0.0
2017-Jul-21 14:00N 57°09' W 002°05'0 0.0
2017-Jul-21 13:30N 57°09' W 002°05'0 0.0
2017-Jul-21 13:00N 57°09' W 002°05'0 0.0
2017-Jul-21 12:30N 57°09' W 002°05'0 0.0
2017-Jul-21 11:58N 57°09' W 002°05'0 0.0
2017-Jul-21 11:28N 57°09' W 002°05'0 0.0
2017-Jul-21 10:58N 57°09' W 002°05'0 0.0
2017-Jul-21 10:28N 57°09' W 002°05'0 0.0
2017-Jul-21 10:00N 57°09' W 002°05'0 0.0
2017-Jul-21 09:30N 57°09' W 002°05'0 0.0
2017-Jul-21 09:00N 57°09' W 002°05'0 0.0
2017-Jul-21 08:30N 57°09' W 002°05'0 0.0
2017-Jul-21 08:00N 57°09' W 002°05'0 0.0
2017-Jul-21 07:30N 57°09' W 002°05'0 0.0
2017-Jul-21 07:00N 57°09' W 002°05'0 0.0
2017-Jul-21 06:30N 57°09' W 002°05'0 0.0
2017-Jul-21 06:00N 57°09' W 002°05'1 1.2
2017-Jul-21 05:30N 57°08' W 002°04'611.9
2017-Jul-21 05:01N 57°12' W 001°56'1815.0
2017-Jul-21 03:48N 57°28' W 001°40'311.0
2017-Jul-21 03:29N 57°32' W 001°40'3 0.1
2017-Jul-19 20:29N 57°32' W 001°35'511.3
2017-Jul-19 20:00N 57°27' W 001°38'1111.1
2017-Jul-19 18:59N 57°18' W 001°50'612.4
2017-Jul-19 18:30N 57°13' W 001°56'612.6
2017-Jul-19 18:00N 57°09' W 002°04'1 1.4
2017-Jul-19 17:29N 57°09' W 002°05'0 0.0
2017-Jul-19 16:59N 57°09' W 002°05'0 0.0
2017-Jul-19 16:29N 57°09' W 002°05'0 0.0
2017-Jul-19 15:59N 57°09' W 002°05'0 0.0
2017-Jul-19 15:29N 57°09' W 002°05'0 0.0
2017-Jul-19 14:59N 57°09' W 002°05'0 0.0
2017-Jul-19 14:29N 57°09' W 002°05'0 0.0
2017-Jul-19 13:59N 57°09' W 002°05'0 0.0
2017-Jul-19 13:29N 57°09' W 002°05'0 0.0
2017-Jul-19 12:59N 57°09' W 002°05'0 0.0
2017-Jul-19 12:29N 57°09' W 002°05'0 0.0
2017-Jul-19 11:59N 57°09' W 002°05'0 0.0
2017-Jul-19 11:29N 57°09' W 002°05'0 0.0
2017-Jul-19 10:59N 57°09' W 002°05'0 0.0
2017-Jul-19 10:29N 57°09' W 002°05'0 0.0
2017-Jul-19 09:59N 57°09' W 002°05'0 0.0
2017-Jul-19 09:29N 57°09' W 002°05'0 0.0
2017-Jul-19 08:59N 57°09' W 002°05'0 0.0
2017-Jul-19 08:29N 57°09' W 002°05'0 0.0
2017-Jul-19 07:59N 57°09' W 002°05'0 0.0
2017-Jul-19 07:29N 57°09' W 002°05'0 0.0
2017-Jul-19 06:59N 57°09' W 002°05'0 0.0
2017-Jul-19 06:29N 57°09' W 002°05'0 0.0
2017-Jul-19 05:59N 57°09' W 002°05'0 0.9
2017-Jul-19 05:31N 57°09' W 002°05'511.0
2017-Jul-19 05:01N 57°13' W 001°58'812.2
2017-Jul-19 04:23N 57°19' W 001°50'1012.4
2017-Jul-19 03:33N 57°27' W 001°39'312.1
2017-Jul-19 03:17N 57°31' W 001°37'414.4
2017-Jul-19 02:59N 57°35' W 001°38'1217.1
2017-Jul-19 02:19N 57°46' W 001°40'917.4
2017-Jul-19 01:47N 57°55' W 001°41'517.4
2017-Jul-19 01:30N 58°00' W 001°41'8 0.3
2017-Jul-17 21:07N 57°53' W 001°34'818.6
2017-Jul-17 20:43N 57°46' W 001°35'418.3
2017-Jul-17 20:30N 57°42' W 001°35'917.3
2017-Jul-17 19:58N 57°33' W 001°35'816.7
2017-Jul-17 19:30N 57°25' W 001°40'917.4
2017-Jul-17 19:00N 57°18' W 001°49'917.6
2017-Jul-17 18:30N 57°11' W 001°58'5 9.1
2017-Jul-17 18:00N 57°09' W 002°05'0 0.2
2017-Jul-17 17:30N 57°09' W 002°05'0 0.0
2017-Jul-17 17:00N 57°09' W 002°05'0 0.0
2017-Jul-17 16:30N 57°09' W 002°05'0 0.0
2017-Jul-17 16:00N 57°09' W 002°05'0 0.0
2017-Jul-17 15:30N 57°09' W 002°05'0 0.0
2017-Jul-17 15:00N 57°09' W 002°05'0 0.0
2017-Jul-17 14:30N 57°09' W 002°05'0 0.0
2017-Jul-17 14:00N 57°09' W 002°05'0 0.0
2017-Jul-17 13:24N 57°09' W 002°05'0 0.0
2017-Jul-17 12:58N 57°09' W 002°05'0 0.0
2017-Jul-17 12:28N 57°09' W 002°05'0 0.0
2017-Jul-17 12:00N 57°09' W 002°05'0 0.0
2017-Jul-17 11:30N 57°09' W 002°05'0 0.0
2017-Jul-17 11:00N 57°09' W 002°05'0 0.0
2017-Jul-17 10:30N 57°09' W 002°05'0 0.0
2017-Jul-17 10:00N 57°09' W 002°05'0 0.0
2017-Jul-17 09:30N 57°09' W 002°05'0 0.0
2017-Jul-17 08:59N 57°09' W 002°05'0 0.0
2017-Jul-17 08:29N 57°09' W 002°05'0 0.0
2017-Jul-17 07:59N 57°09' W 002°05'0 0.0
2017-Jul-17 07:29N 57°09' W 002°05'0 0.0
2017-Jul-17 06:59N 57°09' W 002°05'0 0.0
2017-Jul-17 06:29N 57°09' W 002°05'0 0.0
2017-Jul-17 05:59N 57°09' W 002°05'1 1.2
2017-Jul-17 05:31N 57°09' W 002°04'713.5
2017-Jul-17 05:00N 57°13' W 001°56'2013.8
2017-Jul-17 03:32N 57°31' W 001°37'113.5
2017-Jul-17 03:28N 57°32' W 001°37'1813.9
2017-Jul-17 02:12N 57°50' W 001°37'  

Dump ship's entire track history